Time;durP1;ratioP1;P1;durP2;ratioP2;P2;SDS_P1;SDS_P2;PMS_P1;PMS_P2;Temp;Humidity;BMP_temperature;BMP_pressure;BME280_temperature;BME280_humidity;BME280_pressure;Samples;Min_cycle;Max_cycle;Signal;HPM_P1;HPM_P2
2024/03/20 00:01:09;;;;;;;4.57;2.58;;;;;;;;;;6157220;23;20503;-93
2024/03/20 00:03:34;;;;;;;10.50;2.50;;;;;;;;;;6178518;23;20059;-92
2024/03/20 00:05:59;;;;;;;4.37;2.37;;;;;;;;;;6183015;23;20223;-93
2024/03/20 00:08:25;;;;;;;6.90;2.15;;;;;;;;;;6182523;23;20274;-95
2024/03/20 00:10:50;;;;;;;8.25;2.33;;;;;;;;;;6182608;23;20001;-93
2024/03/20 00:13:16;;;;;;;5.03;2.38;;;;;;;;;;6184619;23;20005;-93
2024/03/20 00:15:41;;;;;;;7.28;2.10;;;;;;;;;;6182424;23;20325;-93
2024/03/20 00:18:06;;;;;;;9.13;2.80;;;;;;;;;;6182267;23;20005;-93
2024/03/20 00:20:31;;;;;;;5.82;2.17;;;;;;;;;;6182337;23;20255;-92
2024/03/20 00:22:57;;;;;;;7.10;2.10;;;;;;;;;;6182178;23;20004;-92
2024/03/20 00:25:22;;;;;;;3.80;1.90;;;;;;;;;;6182472;23;20231;-93
2024/03/20 00:27:47;;;;;;;5.88;2.63;;;;;;;;;;6184248;23;20215;-93
2024/03/20 00:30:12;;;;;;;7.63;2.20;;;;;;;;;;6184022;23;19998;-92
2024/03/20 00:32:37;;;;;;;9.18;2.25;;;;;;;;;;6182420;23;20222;-93
2024/03/20 00:35:05;;;;;;;9.67;2.40;;;;;;;;;;6184308;23;20008;-92
2024/03/20 00:37:30;;;;;;;9.35;2.13;;;;;;;;;;6182173;23;20214;-93
2024/03/20 00:39:55;;;;;;;10.90;2.28;;;;;;;;;;6182453;23;20056;-93
2024/03/20 00:42:21;;;;;;;4.75;1.77;;;;;;;;;;6182478;23;20112;-92
2024/03/20 00:44:47;;;;;;;7.50;1.63;;;;;;;;;;6182473;23;20001;-93
2024/03/20 00:47:12;;;;;;;6.93;1.83;;;;;;;;;;6182750;23;20323;-93
2024/03/20 00:49:37;;;;;;;3.63;1.50;;;;;;;;;;6184756;23;20670;-93
2024/03/20 00:52:02;;;;;;;6.47;1.83;;;;;;;;;;6184338;23;20008;-93
2024/03/20 00:54:28;;;;;;;5.40;2.08;;;;;;;;;;6184555;23;20281;-92
2024/03/20 00:56:53;;;;;;;13.20;1.65;;;;;;;;;;6184373;23;20005;-93
2024/03/20 00:59:20;;;;;;;5.77;2.03;;;;;;;;;;6185069;23;20017;-93
2024/03/20 01:01:45;;;;;;;8.48;1.80;;;;;;;;;;6186144;23;20211;-93
2024/03/20 01:04:12;;;;;;;8.30;2.10;;;;;;;;;;6186057;23;20327;-93
2024/03/20 01:06:37;;;;;;;8.50;1.70;;;;;;;;;;6159217;23;20332;-93
2024/03/20 01:09:05;;;;;;;13.88;2.10;;;;;;;;;;6159538;23;20028;-93
2024/03/20 01:11:31;;;;;;;5.10;1.40;;;;;;;;;;6159652;23;20005;-93
2024/03/20 01:13:56;;;;;;;6.45;1.55;;;;;;;;;;6159667;23;20005;-94
2024/03/20 01:16:21;;;;;;;11.20;2.13;;;;;;;;;;6185908;23;20421;-93
2024/03/20 01:18:47;;;;;;;18.20;2.75;;;;;;;;;;6159609;23;20004;-94
2024/03/20 01:21:13;;;;;;;10.20;2.55;;;;;;;;;;6159563;23;20393;-93
2024/03/20 01:23:38;;;;;;;7.13;2.00;;;;;;;;;;6158944;23;20001;-93
2024/03/20 01:26:03;;;;;;;9.45;2.25;;;;;;;;;;6159405;23;20012;-93
2024/03/20 01:28:28;;;;;;;6.03;1.83;;;;;;;;;;6159850;23;20020;-93
2024/03/20 01:30:55;;;;;;;9.25;2.38;;;;;;;;;;6159598;23;20234;-95
2024/03/20 01:33:20;;;;;;;8.30;1.92;;;;;;;;;;6159461;23;20005;-93
2024/03/20 01:35:45;;;;;;;8.30;2.23;;;;;;;;;;6159084;23;20091;-90
2024/03/20 01:38:10;;;;;;;9.57;2.17;;;;;;;;;;6159372;23;20222;-95
2024/03/20 01:40:36;;;;;;;7.20;2.03;;;;;;;;;;6159487;23;20255;-94
2024/03/20 01:43:01;;;;;;;14.98;2.53;;;;;;;;;;6160461;23;20262;-92
2024/03/20 01:45:26;;;;;;;3.75;1.75;;;;;;;;;;6185577;23;20032;-93
2024/03/20 01:47:51;;;;;;;10.95;2.10;;;;;;;;;;6159182;23;20008;-93
2024/03/20 01:50:17;;;;;;;9.52;2.05;;;;;;;;;;6159004;23;20005;-92
2024/03/20 01:52:53;;;;;;;7.93;2.22;;;;;;;;;;6158671;23;20331;-91
2024/03/20 01:55:19;;;;;;;4.93;2.15;;;;;;;;;;6184641;23;20001;-91
2024/03/20 01:57:44;;;;;;;11.55;2.42;;;;;;;;;;6185179;23;19992;-92
2024/03/20 02:00:13;;;;;;;10.35;2.97;;;;;;;;;;6158381;23;20068;-91
2024/03/20 02:02:38;;;;;;;8.35;2.08;;;;;;;;;;6168106;23;20001;-92
2024/03/20 02:05:04;;;;;;;8.45;2.50;;;;;;;;;;6184215;23;20103;-96
2024/03/20 02:07:29;;;;;;;5.35;1.92;;;;;;;;;;6164403;23;20016;-91
2024/03/20 02:09:54;;;;;;;9.20;2.00;;;;;;;;;;6214685;23;19993;-91
2024/03/20 02:12:20;;;;;;;5.20;1.70;;;;;;;;;;6215000;23;20226;-90
2024/03/20 02:14:45;;;;;;;11.60;1.83;;;;;;;;;;6212956;23;20230;-90
2024/03/20 02:17:10;;;;;;;13.20;2.23;;;;;;;;;;6212747;23;20569;-90
2024/03/20 02:19:35;;;;;;;12.82;3.28;;;;;;;;;;6214035;23;20726;-92
2024/03/20 02:22:00;;;;;;;6.87;2.10;;;;;;;;;;6213342;23;20000;-91
2024/03/20 02:24:27;;;;;;;8.40;2.00;;;;;;;;;;6214978;23;20214;-92
2024/03/20 02:26:53;;;;;;;13.65;2.85;;;;;;;;;;6214795;23;20079;-90
2024/03/20 02:29:18;;;;;;;15.95;2.78;;;;;;;;;;6214637;23;20020;-93
2024/03/20 02:31:43;;;;;;;14.87;2.83;;;;;;;;;;6214121;23;20000;-94
2024/03/20 02:34:08;;;;;;;9.73;2.10;;;;;;;;;;6214199;23;20230;-95
2024/03/20 02:36:33;;;;;;;15.07;3.07;;;;;;;;;;6213506;23;20227;-93
2024/03/20 02:38:59;;;;;;;6.10;2.57;;;;;;;;;;6212891;23;20245;-93
2024/03/20 02:41:26;;;;;;;5.60;2.38;;;;;;;;;;6213512;23;20715;-93
2024/03/20 02:43:52;;;;;;;8.25;3.25;;;;;;;;;;6214362;23;20000;-93
2024/03/20 02:46:17;;;;;;;15.13;2.40;;;;;;;;;;6213650;23;20001;-93
2024/03/20 02:48:42;;;;;;;10.13;2.05;;;;;;;;;;6215145;23;20024;-93
2024/03/20 02:51:08;;;;;;;15.35;2.63;;;;;;;;;;6213414;23;19993;-92
2024/03/20 02:53:33;;;;;;;10.13;2.40;;;;;;;;;;6214854;23;19997;-92
2024/03/20 02:55:58;;;;;;;10.00;3.00;;;;;;;;;;6213249;23;20364;-93
2024/03/20 02:58:23;;;;;;;14.17;2.90;;;;;;;;;;6213172;23;20001;-94
2024/03/20 03:00:48;;;;;;;14.97;2.83;;;;;;;;;;6213208;23;20254;-92
2024/03/20 03:03:14;;;;;;;22.30;2.90;;;;;;;;;;6213563;23;20569;-92
2024/03/20 03:05:39;;;;;;;11.82;3.13;;;;;;;;;;6213207;23;20626;-93
2024/03/20 03:08:04;;;;;;;15.13;4.40;;;;;;;;;;6214903;23;20020;-93
2024/03/20 03:10:30;;;;;;;10.38;3.00;;;;;;;;;;6214362;23;20233;-93
2024/03/20 03:12:56;;;;;;;12.23;2.80;;;;;;;;;;6213947;23;20059;-94
2024/03/20 03:15:21;;;;;;;11.43;3.03;;;;;;;;;;6214406;23;20364;-91
2024/03/20 03:17:48;;;;;;;10.13;3.05;;;;;;;;;;6214125;23;19996;-90
2024/03/20 03:20:14;;;;;;;8.68;2.65;;;;;;;;;;6213913;23;20035;-91
2024/03/20 03:22:43;;;;;;;16.00;3.53;;;;;;;;;;6212587;23;20425;-91
2024/03/20 03:25:09;;;;;;;11.20;3.00;;;;;;;;;;6214275;23;20446;-91
2024/03/20 03:27:35;;;;;;;11.02;2.90;;;;;;;;;;6212829;23;20084;-93
2024/03/20 03:30:00;;;;;;;9.27;2.50;;;;;;;;;;6213021;23;20000;-93
2024/03/20 03:32:25;;;;;;;9.13;2.80;;;;;;;;;;6212548;23;20297;-93
2024/03/20 03:34:50;;;;;;;8.15;3.10;;;;;;;;;;6213396;23;19997;-93
2024/03/20 03:37:16;;;;;;;11.20;3.05;;;;;;;;;;6214597;23;20002;-93
2024/03/20 03:39:41;;;;;;;10.95;3.17;;;;;;;;;;6214373;23;20005;-94
2024/03/20 03:42:06;;;;;;;10.45;3.03;;;;;;;;;;6214321;23;20037;-93
2024/03/20 03:44:31;;;;;;;11.75;3.55;;;;;;;;;;6212897;23;20001;-92
2024/03/20 03:46:57;;;;;;;12.93;3.63;;;;;;;;;;6212227;23;20004;-93
2024/03/20 03:49:22;;;;;;;17.23;3.63;;;;;;;;;;6214759;23;20075;-92
2024/03/20 03:51:47;;;;;;;20.43;3.50;;;;;;;;;;6212307;23;20227;-92
2024/03/20 03:54:13;;;;;;;21.43;4.50;;;;;;;;;;6212182;23;20218;-93
2024/03/20 03:56:38;;;;;;;20.40;4.47;;;;;;;;;;6212959;23;20237;-93
2024/03/20 03:59:03;;;;;;;16.30;4.00;;;;;;;;;;6212560;23;20416;-91
2024/03/20 04:01:28;;;;;;;13.60;4.05;;;;;;;;;;6212743;23;20008;-92
2024/03/20 04:03:53;;;;;;;11.07;3.70;;;;;;;;;;6212814;23;20043;-93
2024/03/20 04:06:19;;;;;;;18.07;4.50;;;;;;;;;;6210953;23;20234;-93
2024/03/20 04:08:44;;;;;;;11.53;3.20;;;;;;;;;;6212764;23;20222;-93
2024/03/20 04:11:09;;;;;;;21.63;4.90;;;;;;;;;;6212973;23;20218;-94
2024/03/20 04:13:34;;;;;;;13.20;3.63;;;;;;;;;;6214178;23;20000;-92
2024/03/20 04:16:00;;;;;;;10.53;3.30;;;;;;;;;;6212464;23;20230;-93
2024/03/20 04:18:25;;;;;;;15.95;3.65;;;;;;;;;;6212675;23;20552;-93
2024/03/20 04:20:50;;;;;;;11.73;3.33;;;;;;;;;;6212660;23;20012;-92
2024/03/20 04:23:15;;;;;;;18.40;3.90;;;;;;;;;;6212525;23;20309;-93
2024/03/20 04:25:40;;;;;;;11.02;3.30;;;;;;;;;;6213883;23;20899;-92
2024/03/20 04:28:06;;;;;;;16.73;3.97;;;;;;;;;;6214376;23;19997;-92
2024/03/20 04:30:31;;;;;;;11.20;4.47;;;;;;;;;;6187540;23;20008;-92
2024/03/20 04:32:56;;;;;;;8.33;3.47;;;;;;;;;;6214102;23;19992;-92
2024/03/20 04:35:22;;;;;;;10.80;3.10;;;;;;;;;;6212333;23;20233;-92
2024/03/20 04:37:47;;;;;;;10.52;3.25;;;;;;;;;;6211657;23;19996;-92
2024/03/20 04:40:12;;;;;;;10.20;2.80;;;;;;;;;;6214156;23;20005;-92
2024/03/20 04:42:37;;;;;;;12.57;4.00;;;;;;;;;;6212775;23;20292;-92
2024/03/20 04:45:04;;;;;;;9.63;3.78;;;;;;;;;;6213743;23;20305;-91
2024/03/20 04:47:29;;;;;;;17.25;4.28;;;;;;;;;;6214351;23;20415;-92
2024/03/20 04:49:54;;;;;;;11.65;4.18;;;;;;;;;;6212507;23;20007;-92
2024/03/20 04:52:20;;;;;;;9.67;3.17;;;;;;;;;;6212066;23;20424;-93
2024/03/20 04:54:45;;;;;;;12.68;3.38;;;;;;;;;;6212074;23;20257;-93
2024/03/20 04:57:10;;;;;;;11.57;3.10;;;;;;;;;;6213753;23;20415;-92
2024/03/20 04:59:35;;;;;;;9.93;2.87;;;;;;;;;;6212272;23;20059;-92
2024/03/20 05:02:01;;;;;;;15.80;4.13;;;;;;;;;;6213880;23;20321;-92
2024/03/20 05:04:27;;;;;;;7.35;4.32;;;;;;;;;;6213778;23;20211;-93
2024/03/20 05:06:52;;;;;;;12.20;4.30;;;;;;;;;;6206530;23;20092;-93
2024/03/20 05:09:17;;;;;;;12.53;4.03;;;;;;;;;;6206544;23;20056;-91
2024/03/20 05:11:42;;;;;;;14.25;3.92;;;;;;;;;;6207241;23;20223;-93
2024/03/20 05:14:08;;;;;;;11.82;4.70;;;;;;;;;;6207443;23;20028;-92
2024/03/20 05:16:33;;;;;;;9.67;3.57;;;;;;;;;;6207236;23;20313;-93
2024/03/20 05:18:58;;;;;;;8.57;3.60;;;;;;;;;;6184090;23;20554;-92
2024/03/20 05:21:23;;;;;;;6.13;2.50;;;;;;;;;;6207461;23;20251;-93
2024/03/20 05:23:48;;;;;;;8.40;3.00;;;;;;;;;;6206906;23;20223;-92
2024/03/20 05:26:14;;;;;;;12.80;4.00;;;;;;;;;;6183870;23;20487;-93
2024/03/20 05:28:40;;;;;;;5.80;3.00;;;;;;;;;;6183867;23;20291;-93
2024/03/20 05:31:05;;;;;;;4.65;3.20;;;;;;;;;;6183973;23;20075;-92
2024/03/20 05:33:30;;;;;;;5.93;2.80;;;;;;;;;;6184030;23;19997;-92
2024/03/20 05:35:55;;;;;;;6.15;3.22;;;;;;;;;;6185778;23;20024;-92
2024/03/20 05:38:21;;;;;;;13.83;3.60;;;;;;;;;;6185218;23;20008;-92
2024/03/20 05:40:46;;;;;;;5.07;2.67;;;;;;;;;;6185371;23;20251;-93
2024/03/20 05:43:11;;;;;;;8.73;2.97;;;;;;;;;;6185742;23;20215;-92
2024/03/20 05:45:36;;;;;;;6.05;2.60;;;;;;;;;;6185641;23;20008;-93
2024/03/20 05:48:02;;;;;;;11.20;3.55;;;;;;;;;;6183669;23;20490;-93
2024/03/20 05:50:27;;;;;;;6.43;3.20;;;;;;;;;;6208845;23;20001;-92
2024/03/20 05:52:53;;;;;;;4.57;3.03;;;;;;;;;;6208078;23;20023;-92
2024/03/20 05:55:19;;;;;;;11.95;3.78;;;;;;;;;;6209512;23;20443;-94
2024/03/20 05:57:50;;;;;;;9.82;4.68;;;;;;;;;;6208959;23;20043;-93
2024/03/20 06:00:15;;;;;;;10.27;3.63;;;;;;;;;;6209179;23;20005;-93
2024/03/20 06:02:41;;;;;;;11.57;4.05;;;;;;;;;;6185553;23;20020;-93
2024/03/20 06:05:07;;;;;;;8.90;3.83;;;;;;;;;;6208879;23;20092;-93
2024/03/20 06:07:32;;;;;;;8.38;4.13;;;;;;;;;;6208542;23;20005;-93
2024/03/20 06:09:57;;;;;;;6.43;3.70;;;;;;;;;;6209058;23;20028;-93
2024/03/20 06:12:23;;;;;;;9.10;4.10;;;;;;;;;;6185462;23;20545;-93
2024/03/20 06:14:48;;;;;;;12.40;3.87;;;;;;;;;;6208925;23;20716;-95
2024/03/20 06:17:15;;;;;;;6.67;3.23;;;;;;;;;;6184145;23;20219;-93
2024/03/20 06:19:40;;;;;;;7.65;3.85;;;;;;;;;;6183767;23;20259;-93
2024/03/20 06:22:05;;;;;;;9.63;3.80;;;;;;;;;;6208844;23;20486;-92
2024/03/20 06:24:31;;;;;;;10.93;4.45;;;;;;;;;;6184959;23;20371;-93
2024/03/20 06:26:56;;;;;;;9.17;3.37;;;;;;;;;;6183614;23;20051;-93
2024/03/20 06:29:21;;;;;;;5.07;3.37;;;;;;;;;;6208821;23;20227;-93
2024/03/20 06:31:46;;;;;;;12.73;4.97;;;;;;;;;;6209136;23;20245;-93
2024/03/20 06:34:12;;;;;;;12.77;4.70;;;;;;;;;;6209002;23;20215;-92
2024/03/20 06:36:38;;;;;;;6.28;4.28;;;;;;;;;;6184887;23;19997;-93
2024/03/20 06:39:03;;;;;;;10.80;4.25;;;;;;;;;;6208717;23;19997;-94
2024/03/20 06:41:29;;;;;;;12.15;4.13;;;;;;;;;;6208828;23;20072;-93
2024/03/20 06:43:54;;;;;;;14.20;4.57;;;;;;;;;;6185251;23;19997;-93
2024/03/20 06:46:19;;;;;;;7.97;4.43;;;;;;;;;;6183797;23;20223;-93
2024/03/20 06:48:46;;;;;;;10.57;4.97;;;;;;;;;;6183731;23;19993;-94
2024/03/20 06:51:12;;;;;;;9.23;4.03;;;;;;;;;;6184895;23;20226;-93
2024/03/20 06:53:37;;;;;;;11.73;5.00;;;;;;;;;;6208138;23;20032;-93
2024/03/20 06:56:05;;;;;;;6.40;3.67;;;;;;;;;;6208576;23;20047;-93
2024/03/20 06:58:30;;;;;;;6.63;4.28;;;;;;;;;;6208478;23;19997;-93
2024/03/20 07:00:56;;;;;;;9.43;4.85;;;;;;;;;;6184866;23;20432;-94
2024/03/20 07:03:22;;;;;;;12.67;5.40;;;;;;;;;;6185128;23;19993;-93
2024/03/20 07:05:47;;;;;;;9.45;4.45;;;;;;;;;;6208634;23;20549;-92
2024/03/20 07:08:12;;;;;;;14.40;6.30;;;;;;;;;;6184966;23;19993;-93
2024/03/20 07:10:38;;;;;;;14.77;5.93;;;;;;;;;;6208219;23;20282;-93
2024/03/20 07:13:04;;;;;;;14.82;6.53;;;;;;;;;;6183615;23;20219;-94
2024/03/20 07:15:29;;;;;;;10.35;5.30;;;;;;;;;;6208788;23;20335;-94
2024/03/20 07:17:54;;;;;;;9.90;5.55;;;;;;;;;;6185034;23;19996;-94
2024/03/20 07:20:20;;;;;;;14.83;5.77;;;;;;;;;;6184792;23;20008;-94
2024/03/20 07:22:45;;;;;;;19.38;6.88;;;;;;;;;;6208292;23;20219;-93
2024/03/20 07:25:11;;;;;;;17.63;7.05;;;;;;;;;;6208243;23;20001;-94
2024/03/20 07:27:36;;;;;;;20.38;8.10;;;;;;;;;;6208201;23;20001;-93
2024/03/20 07:30:03;;;;;;;22.77;6.43;;;;;;;;;;6208472;23;20088;-93
2024/03/20 07:32:28;;;;;;;8.68;4.97;;;;;;;;;;6208434;23;20028;-93
2024/03/20 07:34:54;;;;;;;14.05;5.80;;;;;;;;;;6208017;23;20084;-93
2024/03/20 07:37:19;;;;;;;10.77;5.32;;;;;;;;;;6207853;23;20024;-93
2024/03/20 07:39:44;;;;;;;16.03;6.70;;;;;;;;;;6208175;23;20013;-94
2024/03/20 07:42:09;;;;;;;13.57;6.00;;;;;;;;;;6184373;23;20297;-93
2024/03/20 07:44:36;;;;;;;19.42;5.78;;;;;;;;;;6184570;23;20008;-94
2024/03/20 07:47:01;;;;;;;10.15;5.47;;;;;;;;;;6207746;23;20420;-92
2024/03/20 07:49:26;;;;;;;10.30;5.13;;;;;;;;;;6184211;23;20023;-95
2024/03/20 07:51:52;;;;;;;9.90;4.72;;;;;;;;;;6206333;23;20005;-91
2024/03/20 07:54:24;;;;;;;11.77;5.20;;;;;;;;;;6183944;23;19993;-92
2024/03/20 07:56:51;;;;;;;14.90;5.82;;;;;;;;;;6206994;23;20052;-91
2024/03/20 07:59:17;;;;;;;13.23;5.25;;;;;;;;;;6183858;23;20043;-92
2024/03/20 08:01:42;;;;;;;20.70;6.38;;;;;;;;;;6207020;23;20343;-92
2024/03/20 08:04:07;;;;;;;12.60;5.55;;;;;;;;;;6207432;23;20004;-93
2024/03/20 08:06:32;;;;;;;14.67;5.50;;;;;;;;;;6206858;23;20086;-92
2024/03/20 08:08:58;;;;;;;24.63;4.85;;;;;;;;;;6183985;23;20673;-93
2024/03/20 08:11:23;;;;;;;13.50;4.80;;;;;;;;;;6182179;23;20084;-92
2024/03/20 08:13:49;;;;;;;10.80;4.93;;;;;;;;;;6181809;23;20012;-90
2024/03/20 08:16:14;;;;;;;17.45;5.82;;;;;;;;;;6207534;23;20223;-92
2024/03/20 08:18:40;;;;;;;16.57;5.23;;;;;;;;;;6184328;23;19997;-90
2024/03/20 08:21:05;;;;;;;11.43;5.65;;;;;;;;;;6182620;23;20251;-93
2024/03/20 08:23:30;;;;;;;13.07;5.65;;;;;;;;;;6182453;23;20001;-93
2024/03/20 08:25:57;;;;;;;14.13;5.68;;;;;;;;;;6207162;23;20060;-93
2024/03/20 08:28:25;;;;;;;12.05;5.00;;;;;;;;;;6210188;23;19997;-95
2024/03/20 08:30:50;;;;;;;16.45;5.22;;;;;;;;;;6206982;23;20005;-91
2024/03/20 08:33:16;;;;;;;17.40;5.67;;;;;;;;;;6207275;23;20005;-92
2024/03/20 08:35:41;;;;;;;10.88;5.72;;;;;;;;;;6206682;23;20235;-94
2024/03/20 08:38:07;;;;;;;17.42;5.22;;;;;;;;;;6184181;23;20001;-93
2024/03/20 08:40:32;;;;;;;14.45;5.18;;;;;;;;;;6183444;23;20080;-90
2024/03/20 08:42:57;;;;;;;15.98;5.15;;;;;;;;;;6182304;23;19993;-91
2024/03/20 08:45:22;;;;;;;14.32;5.45;;;;;;;;;;6184061;23;20005;-92
2024/03/20 08:47:48;;;;;;;10.45;4.78;;;;;;;;;;6183747;23;20006;-90
2024/03/20 08:50:13;;;;;;;10.10;4.90;;;;;;;;;;6183419;23;20004;-91
2024/03/20 08:52:38;;;;;;;11.95;5.07;;;;;;;;;;6183839;23;20219;-91
2024/03/20 08:55:05;;;;;;;9.20;4.22;;;;;;;;;;6183469;23;19997;-93
2024/03/20 08:57:31;;;;;;;13.73;4.63;;;;;;;;;;6181813;23;20007;-92
2024/03/20 08:59:57;;;;;;;10.48;4.60;;;;;;;;;;6207041;23;20380;-91
2024/03/20 09:02:22;;;;;;;12.27;4.60;;;;;;;;;;6207342;23;19997;-93
2024/03/20 09:04:47;;;;;;;13.38;5.03;;;;;;;;;;6207505;23;20005;-92
2024/03/20 09:07:12;;;;;;;10.20;5.63;;;;;;;;;;6205931;23;20005;-91
2024/03/20 09:09:38;;;;;;;14.10;5.70;;;;;;;;;;6213194;23;19997;-92
2024/03/20 09:12:04;;;;;;;12.18;4.57;;;;;;;;;;6215445;23;19997;-92
2024/03/20 09:14:30;;;;;;;11.93;4.90;;;;;;;;;;6217042;23;20451;-90
2024/03/20 09:16:55;;;;;;;14.88;4.82;;;;;;;;;;6217422;23;19997;-93
2024/03/20 09:19:20;;;;;;;11.77;4.78;;;;;;;;;;6215547;23;20372;-94
2024/03/20 09:21:45;;;;;;;20.60;6.20;;;;;;;;;;6213608;23;20073;-92
2024/03/20 09:24:22;;;;;;;13.40;4.93;;;;;;;;;;6214451;23;20353;-89
2024/03/20 09:26:48;;;;;;;14.90;5.20;;;;;;;;;;6215193;23;20001;-93
2024/03/20 09:29:14;;;;;;;15.27;5.30;;;;;;;;;;6215113;23;20008;-93
2024/03/20 09:31:39;;;;;;;14.05;4.72;;;;;;;;;;6213699;23;20312;-93
2024/03/20 09:34:05;;;;;;;18.70;4.88;;;;;;;;;;6215575;23;20311;-93
2024/03/20 09:36:30;;;;;;;12.68;4.60;;;;;;;;;;6212539;23;20016;-92
2024/03/20 09:38:56;;;;;;;14.98;4.70;;;;;;;;;;6212983;23;20440;-94
2024/03/20 09:41:21;;;;;;;10.95;4.75;;;;;;;;;;6212720;23;20001;-95
2024/03/20 09:43:47;;;;;;;10.38;4.20;;;;;;;;;;6211201;23;19997;-94
2024/03/20 09:46:14;;;;;;;13.05;4.32;;;;;;;;;;6215623;23;20027;-90
2024/03/20 09:48:40;;;;;;;15.85;4.97;;;;;;;;;;6214610;23;19993;-91
2024/03/20 09:51:06;;;;;;;10.50;5.10;;;;;;;;;;6214022;23;19997;-93
2024/03/20 09:53:34;;;;;;;11.13;4.00;;;;;;;;;;6215058;23;20067;-91
2024/03/20 09:56:09;;;;;;;11.25;4.40;;;;;;;;;;6213270;23;20007;-92
2024/03/20 09:58:35;;;;;;;10.20;4.85;;;;;;;;;;6213839;23;20327;-90
2024/03/20 10:01:00;;;;;;;15.45;4.45;;;;;;;;;;6214942;23;20024;-91
2024/03/20 10:03:25;;;;;;;14.30;4.63;;;;;;;;;;6209703;23;20000;-91
2024/03/20 10:05:52;;;;;;;7.72;3.78;;;;;;;;;;6209630;23;20588;-90
2024/03/20 10:08:17;;;;;;;10.68;4.00;;;;;;;;;;6186712;23;20431;-90
2024/03/20 10:10:43;;;;;;;10.32;4.00;;;;;;;;;;6213203;23;20007;-90
2024/03/20 10:13:11;;;;;;;9.70;3.78;;;;;;;;;;6213149;23;20370;-91
2024/03/20 10:15:37;;;;;;;9.45;3.78;;;;;;;;;;6210899;23;19993;-90
2024/03/20 10:18:03;;;;;;;5.93;3.30;;;;;;;;;;6212375;23;20111;-89
2024/03/20 10:20:28;;;;;;;9.35;3.47;;;;;;;;;;6211650;23;20262;-90
2024/03/20 10:22:54;;;;;;;12.88;4.00;;;;;;;;;;6212937;23;20000;-89
2024/03/20 10:25:21;;;;;;;8.30;3.17;;;;;;;;;;6212875;23;20379;-90
2024/03/20 10:27:50;;;;;;;7.28;3.50;;;;;;;;;;6212768;23;19997;-92
2024/03/20 10:30:20;;;;;;;10.10;3.72;;;;;;;;;;6213359;23;20000;-93
2024/03/20 10:32:48;;;;;;;10.50;3.40;;;;;;;;;;6213006;23;20008;-91
2024/03/20 10:35:14;;;;;;;11.82;3.08;;;;;;;;;;6210917;23;20001;-92
2024/03/20 10:37:41;;;;;;;8.80;2.72;;;;;;;;;;6215900;23;20021;-95
2024/03/20 10:40:08;;;;;;;11.77;3.15;;;;;;;;;;6216060;23;20000;-95
2024/03/20 10:42:35;;;;;;;9.43;3.05;;;;;;;;;;6214415;23;20032;-96
2024/03/20 10:45:01;;;;;;;8.32;2.58;;;;;;;;;;6209278;23;20004;-95
2024/03/20 10:47:27;;;;;;;9.60;3.13;;;;;;;;;;6208456;23;20463;-94
2024/03/20 10:49:52;;;;;;;10.43;2.38;;;;;;;;;;6207330;23;20005;-94
2024/03/20 10:52:17;;;;;;;9.40;3.40;;;;;;;;;;6211327;23;20322;-95
2024/03/20 10:54:44;;;;;;;3.00;1.65;;;;;;;;;;6214041;23;20059;-94
2024/03/20 10:57:10;;;;;;;5.82;2.00;;;;;;;;;;6213935;23;19997;-93
2024/03/20 10:59:36;;;;;;;6.60;1.60;;;;;;;;;;6188189;23;20528;-93
2024/03/20 11:02:05;;;;;;;4.45;1.70;;;;;;;;;;6215162;23;19999;-96
2024/03/20 11:04:30;;;;;;;7.70;1.85;;;;;;;;;;6213960;23;19993;-93
2024/03/20 11:06:56;;;;;;;7.20;2.50;;;;;;;;;;6214647;23;20003;-94
2024/03/20 11:09:22;;;;;;;5.13;1.65;;;;;;;;;;6214307;23;20060;-93
2024/03/20 11:11:48;;;;;;;4.53;1.80;;;;;;;;;;6214716;23;20001;-94
2024/03/20 11:14:22;;;;;;;3.85;1.40;;;;;;;;;;6215082;23;20061;-95
2024/03/20 11:16:48;;;;;;;4.40;1.48;;;;;;;;;;6218306;23;20047;-96
2024/03/20 11:19:14;;;;;;;5.35;1.58;;;;;;;;;;6216991;23;20000;-95
2024/03/20 11:21:39;;;;;;;2.55;1.17;;;;;;;;;;6213522;23;20091;-94
2024/03/20 11:24:05;;;;;;;5.18;2.20;;;;;;;;;;6200189;23;20032;-93
2024/03/20 11:26:30;;;;;;;5.15;1.90;;;;;;;;;;6188415;23;20027;-95
2024/03/20 11:28:57;;;;;;;5.53;1.35;;;;;;;;;;6209906;23;20428;-94
2024/03/20 11:31:25;;;;;;;5.88;1.42;;;;;;;;;;6224091;23;20012;-95
2024/03/20 11:33:50;;;;;;;5.18;2.28;;;;;;;;;;6184956;23;20049;-94
2024/03/20 11:36:19;;;;;;;7.32;1.65;;;;;;;;;;6162588;23;20020;-93
2024/03/20 11:38:50;;;;;;;3.88;1.30;;;;;;;;;;6183027;23;19993;-95
2024/03/20 11:41:18;;;;;;;3.22;1.42;;;;;;;;;;6188908;23;20013;-94
2024/03/20 11:43:44;;;;;;;5.63;1.08;;;;;;;;;;6183142;23;19997;-91
2024/03/20 11:46:10;;;;;;;2.50;1.10;;;;;;;;;;6184509;23;20087;-94
2024/03/20 11:48:35;;;;;;;4.60;1.05;;;;;;;;;;6183276;23;20484;-93
2024/03/20 11:51:02;;;;;;;5.93;1.50;;;;;;;;;;6181760;23;20028;-93
2024/03/20 11:53:27;;;;;;;4.97;1.10;;;;;;;;;;6183436;23;20223;-95
2024/03/20 11:55:53;;;;;;;4.68;1.20;;;;;;;;;;6182964;23;20012;-94
2024/03/20 11:58:18;;;;;;;5.33;0.57;;;;;;;;;;6184005;23;20048;-94
2024/03/20 12:00:44;;;;;;;2.53;0.60;;;;;;;;;;6182782;23;20257;-95
2024/03/20 12:03:24;;;;;;;3.00;0.80;;;;;;;;;;6182854;23;20343;-93
2024/03/20 12:06:06;;;;;;;2.05;0.68;;;;;;;;;;6180916;23;20694;-94
2024/03/20 12:08:31;;;;;;;3.88;0.95;;;;;;;;;;6183813;23;19997;-94
2024/03/20 12:10:57;;;;;;;1.38;0.52;;;;;;;;;;6184434;23;20336;-94
2024/03/20 12:13:22;;;;;;;2.63;0.80;;;;;;;;;;6183240;23;19997;-95
2024/03/20 12:15:47;;;;;;;5.93;2.37;;;;;;;;;;6183016;23;20001;-94
2024/03/20 12:18:12;;;;;;;2.93;1.10;;;;;;;;;;6182819;23;20223;-93
2024/03/20 12:20:38;;;;;;;3.67;0.93;;;;;;;;;;6182842;23;20350;-95
2024/03/20 12:23:07;;;;;;;2.67;0.87;;;;;;;;;;6183119;23;19997;-93
2024/03/20 12:25:32;;;;;;;3.70;0.93;;;;;;;;;;6182649;23;20219;-93
2024/03/20 12:27:58;;;;;;;2.22;0.80;;;;;;;;;;6184741;23;19993;-93
2024/03/20 12:30:24;;;;;;;6.90;1.27;;;;;;;;;;6185140;23;20012;-93
2024/03/20 12:32:49;;;;;;;2.15;0.98;;;;;;;;;;6182678;23;20339;-94
2024/03/20 12:35:15;;;;;;;30.20;2.25;;;;;;;;;;6184628;23;19994;-93
2024/03/20 12:37:40;;;;;;;6.03;0.88;;;;;;;;;;6184356;23;20052;-93
2024/03/20 12:40:06;;;;;;;4.27;0.67;;;;;;;;;;6182563;23;20009;-93
2024/03/20 12:42:31;;;;;;;3.20;0.80;;;;;;;;;;6183419;23;20219;-94
2024/03/20 12:44:56;;;;;;;1.25;0.50;;;;;;;;;;6187432;23;20024;-94
2024/03/20 12:47:21;;;;;;;1.43;0.40;;;;;;;;;;6185962;23;20004;-94
2024/03/20 12:49:49;;;;;;;3.77;0.60;;;;;;;;;;6187685;23;20219;-94
2024/03/20 12:52:14;;;;;;;2.97;0.80;;;;;;;;;;6161392;23;20223;-93
2024/03/20 12:54:45;;;;;;;1.10;0.50;;;;;;;;;;6185867;23;19996;-94
2024/03/20 12:57:10;;;;;;;1.55;0.60;;;;;;;;;;6186378;23;20008;-95
2024/03/20 12:59:37;;;;;;;2.30;0.87;;;;;;;;;;6185793;23;20016;-94
2024/03/20 13:02:03;;;;;;;3.72;0.57;;;;;;;;;;6186323;23;20271;-94
2024/03/20 13:04:29;;;;;;;1.50;0.50;;;;;;;;;;6186807;23;19997;-93
2024/03/20 13:06:55;;;;;;;3.10;0.60;;;;;;;;;;6186045;23;20005;-94
2024/03/20 13:09:22;;;;;;;3.77;1.57;;;;;;;;;;6186319;23;20080;-94
2024/03/20 13:11:48;;;;;;;1.80;0.73;;;;;;;;;;6186168;23;20554;-94
2024/03/20 13:14:13;;;;;;;2.57;1.00;;;;;;;;;;6187465;23;20004;-94
2024/03/20 13:16:38;;;;;;;2.60;0.60;;;;;;;;;;6185950;23;20690;-95
2024/03/20 13:19:04;;;;;;;2.00;0.70;;;;;;;;;;6184752;23;20284;-94
2024/03/20 13:21:30;;;;;;;1.05;0.38;;;;;;;;;;6185850;23;20736;-94
2024/03/20 13:23:59;;;;;;;2.08;0.65;;;;;;;;;;6186102;23;19997;-94
2024/03/20 13:26:26;;;;;;;4.00;0.80;;;;;;;;;;6186055;23;20040;-94
2024/03/20 13:28:52;;;;;;;1.88;0.75;;;;;;;;;;6186219;23;19997;-96
2024/03/20 13:31:17;;;;;;;1.00;0.57;;;;;;;;;;6186142;23;20008;-94
2024/03/20 13:33:46;;;;;;;2.97;1.10;;;;;;;;;;6215068;23;20004;-94
2024/03/20 13:36:14;;;;;;;2.42;0.90;;;;;;;;;;6215986;23;20292;-94
2024/03/20 13:38:42;;;;;;;4.68;1.08;;;;;;;;;;6217804;23;20319;-95
2024/03/20 13:43:53;;;;;;;3.28;1.55;;;;;;;;;;6219489;23;19997;-95
2024/03/20 13:46:19;;;;;;;2.05;0.40;;;;;;;;;;6216682;23;20027;-94
2024/03/20 13:48:44;;;;;;;2.70;0.43;;;;;;;;;;6216559;23;20431;-94
2024/03/20 13:51:16;;;;;;;2.10;0.70;;;;;;;;;;6217605;23;20331;-94
2024/03/20 13:53:42;;;;;;;2.10;0.50;;;;;;;;;;6216054;23;20058;-94
2024/03/20 13:56:11;;;;;;;2.85;1.08;;;;;;;;;;6215941;23;19992;-94
2024/03/20 13:58:37;;;;;;;2.55;0.85;;;;;;;;;;6214458;23;20055;-93
2024/03/20 14:01:02;;;;;;;0.70;0.23;;;;;;;;;;6214700;23;20012;-95
2024/03/20 14:03:27;;;;;;;1.75;0.40;;;;;;;;;;6214602;23;20549;-94
2024/03/20 14:05:52;;;;;;;2.17;0.80;;;;;;;;;;6214830;23;20390;-94
2024/03/20 14:08:19;;;;;;;5.33;0.50;;;;;;;;;;6214515;23;20219;-94
2024/03/20 14:10:45;;;;;;;2.50;0.52;;;;;;;;;;6215675;23;20242;-94
2024/03/20 14:13:13;;;;;;;2.67;0.57;;;;;;;;;;6215857;23;19993;-93
2024/03/20 14:15:38;;;;;;;2.25;0.32;;;;;;;;;;6214909;23;20024;-95
2024/03/20 14:18:04;;;;;;;4.28;0.50;;;;;;;;;;6189135;23;19997;-93
2024/03/20 14:20:29;;;;;;;3.10;0.32;;;;;;;;;;6188844;23;20012;-94
2024/03/20 14:22:56;;;;;;;1.70;0.30;;;;;;;;;;6214382;23;20428;-93
2024/03/20 14:25:22;;;;;;;3.17;0.38;;;;;;;;;;6215773;23;20054;-93
2024/03/20 14:27:47;;;;;;;3.45;0.40;;;;;;;;;;6215812;23;19996;-92
2024/03/20 14:30:12;;;;;;;1.13;0.30;;;;;;;;;;6214524;23;20031;-93